createdAt,value
2022-11-29T00:01:12.644Z,100320.47
2022-11-29T00:03:39.346Z,100319.22
2022-11-29T00:06:12.415Z,100319.91
2022-11-29T00:08:39.371Z,100329.44
2022-11-29T00:11:08.423Z,100326.47
2022-11-29T00:13:35.350Z,100327.69
2022-11-29T00:16:07.294Z,100321.19
2022-11-29T00:18:34.146Z,100315.38
2022-11-29T00:21:04.463Z,100312.25
2022-11-29T00:23:31.000Z,100313.56
2022-11-29T00:26:06.593Z,100318.41
2022-11-29T00:28:33.724Z,100313.03
2022-11-29T00:31:00.389Z,100309.03
2022-11-29T00:33:27.803Z,100322.94
2022-11-29T00:35:54.310Z,100320.94
2022-11-29T00:38:20.809Z,100313.53
2022-11-29T00:40:51.826Z,100319.16
2022-11-29T00:43:18.398Z,100321.28
2022-11-29T00:45:44.997Z,100319.56
2022-11-29T00:48:11.531Z,100315.47
2022-11-29T00:50:38.027Z,100319.63
2022-11-29T00:53:04.586Z,100319.81
2022-11-29T00:55:31.068Z,100319.94
2022-11-29T00:57:57.538Z,100320.09
2022-11-29T01:00:24.277Z,100317.56
2022-11-29T01:02:50.878Z,100315.06
2022-11-29T01:05:18.256Z,100317.63
2022-11-29T01:07:44.870Z,100310.97
2022-11-29T01:10:11.497Z,100312.84
2022-11-29T01:12:39.370Z,100318.91
2022-11-29T01:15:07.297Z,100326.19
2022-11-29T01:17:38.445Z,100328.19
2022-11-29T01:20:09.438Z,100323.75
2022-11-29T01:22:36.769Z,100325.75
2022-11-29T01:25:04.119Z,100327.69
2022-11-29T01:27:30.678Z,100331.38
2022-11-29T01:29:57.224Z,100334.31
2022-11-29T01:32:23.811Z,100341.75
2022-11-29T01:34:50.506Z,100339.16
2022-11-29T01:37:17.157Z,100337.69
2022-11-29T01:39:43.680Z,100340.59
2022-11-29T01:42:11.420Z,100339.25
2022-11-29T01:44:37.851Z,100343.28
2022-11-29T01:47:04.703Z,100344.00
2022-11-29T01:49:44.039Z,100344.88
2022-11-29T01:52:16.612Z,100348.00
2022-11-29T01:54:47.248Z,100349.53
2022-11-29T01:57:14.209Z,100342.00
2022-11-29T01:59:50.891Z,100349.09
2022-11-29T02:02:41.498Z,100340.00
2022-11-29T02:05:09.249Z,100336.38
2022-11-29T02:07:37.292Z,100333.25
2022-11-29T02:10:05.508Z,100339.59
2022-11-29T02:12:39.873Z,100336.97
2022-11-29T02:15:43.419Z,100333.44
2022-11-29T02:18:14.768Z,100342.19
2022-11-29T02:21:09.444Z,100332.38
2022-11-29T02:24:02.328Z,100342.19
2022-11-29T02:26:50.785Z,100345.63
2022-11-29T02:29:42.254Z,100338.41
2022-11-29T02:32:34.009Z,100338.16
2022-11-29T02:35:28.595Z,100344.31
2022-11-29T02:38:06.999Z,100343.56
2022-11-29T02:40:58.408Z,100343.44
2022-11-29T02:44:05.523Z,100351.69
2022-11-29T02:47:06.075Z,100348.97
2022-11-29T02:49:47.861Z,100346.97
2022-11-29T02:52:25.114Z,100350.19
2022-11-29T02:55:15.473Z,100348.00
2022-11-29T02:58:13.435Z,100350.31
2022-11-29T03:00:49.248Z,100359.97
2022-11-29T03:03:24.118Z,100349.28
2022-11-29T03:06:04.769Z,100354.56
2022-11-29T03:08:58.786Z,100353.81
2022-11-29T03:11:38.226Z,100360.19
2022-11-29T03:14:14.683Z,100364.03
2022-11-29T03:16:47.548Z,100361.63
2022-11-29T03:19:42.669Z,100358.56
2022-11-29T03:22:41.509Z,100363.09
2022-11-29T03:25:17.692Z,100362.06
2022-11-29T03:27:51.203Z,100368.69
2022-11-29T03:30:19.248Z,100374.72
2022-11-29T03:32:57.408Z,100369.00
2022-11-29T03:35:47.614Z,100374.16
2022-11-29T03:38:47.124Z,100372.50
2022-11-29T03:41:37.460Z,100381.66
2022-11-29T03:44:12.992Z,100380.41
2022-11-29T03:46:58.296Z,100389.75
2022-11-29T03:49:43.237Z,100385.06
2022-11-29T03:52:20.016Z,100384.59
2022-11-29T03:55:08.838Z,100387.94
2022-11-29T03:57:54.150Z,100390.34
2022-11-29T04:00:21.312Z,100393.34
2022-11-29T04:03:20.195Z,100389.84
2022-11-29T04:06:03.942Z,100385.88
2022-11-29T04:08:36.616Z,100381.56
2022-11-29T04:11:24.225Z,100389.84
2022-11-29T04:14:02.963Z,100387.94
2022-11-29T04:16:53.323Z,100390.41
2022-11-29T04:19:54.791Z,100395.00
2022-11-29T04:22:24.328Z,100398.16
2022-11-29T04:25:13.035Z,100391.22
2022-11-29T04:27:49.556Z,100397.84
2022-11-29T04:30:26.059Z,100398.88
2022-11-29T04:33:13.615Z,100399.66
2022-11-29T04:36:06.714Z,100407.03
2022-11-29T04:39:09.363Z,100403.47
2022-11-29T04:41:54.667Z,100412.50
2022-11-29T04:44:30.858Z,100409.66
2022-11-29T04:47:15.269Z,100414.28
2022-11-29T04:49:56.795Z,100417.56
2022-11-29T04:52:58.652Z,100417.34
2022-11-29T04:55:46.774Z,100411.84
2022-11-29T04:58:25.470Z,100421.78
2022-11-29T05:01:02.102Z,100427.06
2022-11-29T05:03:37.781Z,100429.94
2022-11-29T05:06:20.008Z,100431.72
2022-11-29T05:09:08.222Z,100431.69
2022-11-29T05:11:58.575Z,100435.00
2022-11-29T05:14:59.047Z,100437.13
2022-11-29T05:17:37.152Z,100440.06
2022-11-29T05:20:24.260Z,100434.88
2022-11-29T05:23:10.548Z,100445.69
2022-11-29T05:26:28.400Z,100451.31
2022-11-29T05:29:16.259Z,100448.78
2022-11-29T05:32:16.664Z,100451.22
2022-11-29T05:35:02.920Z,100445.69
2022-11-29T05:38:01.961Z,100451.28
2022-11-29T05:40:53.267Z,100457.84
2022-11-29T05:43:37.569Z,100446.38
2022-11-29T05:46:22.802Z,100457.66
2022-11-29T05:49:20.086Z,100455.47
2022-11-29T05:52:19.217Z,100456.13
2022-11-29T05:55:17.122Z,100456.81
2022-11-29T05:58:12.133Z,100456.56
2022-11-29T06:00:54.684Z,100465.25
2022-11-29T06:03:29.938Z,100462.44
2022-11-29T06:06:15.552Z,100467.16
2022-11-29T06:08:50.347Z,100473.34
2022-11-29T06:11:26.810Z,100475.97
2022-11-29T06:14:08.609Z,100478.94
2022-11-29T06:17:02.308Z,100479.06
2022-11-29T06:19:58.493Z,100475.44
2022-11-29T06:22:51.224Z,100480.06
2022-11-29T06:26:02.339Z,100485.47
2022-11-29T06:28:42.323Z,100488.78
2022-11-29T06:31:31.741Z,100492.69
2022-11-29T06:34:10.981Z,100485.88
2022-11-29T06:37:19.095Z,100491.53
2022-11-29T06:39:45.962Z,100492.50
2022-11-29T06:42:12.459Z,100492.31
2022-11-29T06:44:39.276Z,100493.41
2022-11-29T06:47:32.628Z,100496.91
2022-11-29T06:50:23.964Z,100494.81
2022-11-29T06:53:02.738Z,100497.16
2022-11-29T06:55:53.019Z,100496.78
2022-11-29T06:58:42.631Z,100493.81
2022-11-29T07:01:34.198Z,100503.41
2022-11-29T07:04:19.175Z,100502.28
2022-11-29T07:06:46.097Z,100514.34
2022-11-29T07:09:16.934Z,100511.00
2022-11-29T07:11:45.168Z,100504.06
2022-11-29T07:14:12.160Z,100509.38
2022-11-29T07:16:44.124Z,100512.88
2022-11-29T07:19:38.612Z,100519.69
2022-11-29T07:22:36.351Z,100525.44
2022-11-29T07:25:17.149Z,100525.97
2022-11-29T07:28:17.971Z,100529.94
2022-11-29T07:30:59.885Z,100529.06
2022-11-29T07:33:42.067Z,100533.44
2022-11-29T07:36:34.537Z,100536.94
2022-11-29T07:39:16.320Z,100540.34
2022-11-29T07:42:33.115Z,100539.50
2022-11-29T07:45:12.647Z,100539.38
2022-11-29T07:47:39.233Z,100547.63
2022-11-29T07:50:06.346Z,100544.94
2022-11-29T07:52:33.412Z,100552.91
2022-11-29T07:54:59.964Z,100546.16
2022-11-29T07:57:26.515Z,100551.84
2022-11-29T07:59:53.046Z,100549.09
2022-11-29T08:02:30.472Z,100549.69
2022-11-29T08:04:57.772Z,100553.66
2022-11-29T08:07:24.476Z,100556.22
2022-11-29T08:09:51.393Z,100556.00
2022-11-29T08:12:17.881Z,100567.28
2022-11-29T08:14:44.652Z,100565.22
2022-11-29T08:17:11.310Z,100572.09
2022-11-29T08:19:37.877Z,100572.31
2022-11-29T08:22:04.734Z,100575.69
2022-11-29T08:24:31.599Z,100576.94
2022-11-29T08:26:58.110Z,100574.97
2022-11-29T08:29:25.231Z,100583.03
2022-11-29T08:31:53.977Z,100578.69
2022-11-29T08:34:21.526Z,100583.81
2022-11-29T08:36:48.966Z,100584.44
2022-11-29T08:39:15.746Z,100589.16
2022-11-29T08:41:42.359Z,100587.38
2022-11-29T08:44:09.296Z,100591.03
2022-11-29T08:46:54.663Z,100592.16
2022-11-29T08:49:21.226Z,100594.50
2022-11-29T08:51:47.835Z,100600.50
2022-11-29T08:54:14.482Z,100594.59
2022-11-29T08:59:27.719Z,100601.38
2022-11-29T09:01:54.300Z,100596.09
2022-11-29T09:04:20.868Z,100605.28
2022-11-29T09:06:49.553Z,100606.28
2022-11-29T09:09:16.593Z,100606.72
2022-11-29T09:11:46.985Z,100618.84
2022-11-29T09:14:17.025Z,100610.19
2022-11-29T09:16:43.592Z,100619.69
2022-11-29T09:19:10.269Z,100619.47
2022-11-29T09:21:36.894Z,100629.13
2022-11-29T09:24:06.295Z,100621.81
2022-11-29T09:26:35.084Z,100625.84
2022-11-29T09:29:04.979Z,100627.59
2022-11-29T09:31:33.003Z,100628.63
2022-11-29T09:34:00.220Z,100632.50
2022-11-29T09:36:29.220Z,100633.63
2022-11-29T09:39:02.749Z,100647.84
2022-11-29T09:41:38.766Z,100643.75
2022-11-29T09:44:20.569Z,100653.22
2022-11-29T09:47:05.752Z,100647.47
2022-11-29T09:50:16.693Z,100646.63
2022-11-29T09:52:55.437Z,100657.22
2022-11-29T09:55:59.358Z,100655.19
2022-11-29T09:58:31.795Z,100656.44
2022-11-29T10:01:03.371Z,100660.28
2022-11-29T10:03:39.336Z,100653.13
2022-11-29T10:06:19.751Z,100661.97
2022-11-29T10:09:03.870Z,100658.00
2022-11-29T10:11:38.208Z,100655.34
2022-11-29T10:14:26.744Z,100650.34
2022-11-29T10:17:24.624Z,100655.75
2022-11-29T10:19:54.926Z,100654.03
2022-11-29T10:22:38.177Z,100652.63
2022-11-29T10:25:08.262Z,100645.44
2022-11-29T10:27:36.005Z,100646.78
2022-11-29T10:30:02.692Z,100645.44
2022-11-29T10:32:32.127Z,100650.91
2022-11-29T10:35:00.805Z,100642.09
2022-11-29T10:37:32.564Z,100643.09
2022-11-29T10:40:07.976Z,100643.16
2022-11-29T10:42:49.726Z,100644.41
2022-11-29T10:45:34.889Z,100645.06
2022-11-29T10:48:12.647Z,100650.94
2022-11-29T10:50:43.860Z,100646.28
2022-11-29T10:53:14.868Z,100649.22
2022-11-29T10:56:19.883Z,100648.13
2022-11-29T10:59:05.299Z,100655.06
2022-11-29T11:01:37.160Z,100653.53
2022-11-29T11:04:07.416Z,100658.84
2022-11-29T11:06:46.215Z,100653.00
2022-11-29T11:09:22.307Z,100652.75
2022-11-29T11:11:54.699Z,100660.00
2022-11-29T11:14:26.596Z,100660.84
2022-11-29T11:16:53.990Z,100658.19
2022-11-29T11:19:30.392Z,100662.19
2022-11-29T11:22:04.095Z,100660.78
2022-11-29T11:24:39.733Z,100665.78
2022-11-29T11:27:06.461Z,100656.44
2022-11-29T11:29:39.712Z,100669.00
2022-11-29T11:32:17.125Z,100671.03
2022-11-29T11:35:01.677Z,100672.44
2022-11-29T11:37:33.533Z,100673.06
2022-11-29T11:40:20.126Z,100671.53
2022-11-29T11:42:47.025Z,100670.50
2022-11-29T11:45:13.598Z,100675.44
2022-11-29T11:47:44.713Z,100674.63
2022-11-29T11:50:16.710Z,100671.91
2022-11-29T11:52:50.772Z,100677.00
2022-11-29T11:55:29.694Z,100672.81
2022-11-29T11:58:08.965Z,100677.59
2022-11-29T12:01:04.297Z,100681.19
2022-11-29T12:03:37.259Z,100680.59
2022-11-29T12:06:25.424Z,100674.38
2022-11-29T12:08:57.544Z,100689.47
2022-11-29T12:11:24.610Z,100675.16
2022-11-29T12:13:56.383Z,100679.50
2022-11-29T12:16:30.151Z,100684.22
2022-11-29T12:19:17.656Z,100688.00
2022-11-29T12:21:52.467Z,100689.31
2022-11-29T12:24:29.994Z,100692.97
2022-11-29T12:27:03.548Z,100692.72
2022-11-29T12:29:33.471Z,100694.16
2022-11-29T12:32:27.996Z,100696.78
2022-11-29T12:35:18.955Z,100694.22
2022-11-29T12:38:03.458Z,100704.31
2022-11-29T12:40:38.548Z,100701.66
2022-11-29T12:43:28.410Z,100697.50
2022-11-29T12:46:13.755Z,100703.56
2022-11-29T12:48:45.989Z,100700.72
2022-11-29T12:51:25.056Z,100700.38
2022-11-29T12:54:23.767Z,100706.75
2022-11-29T12:56:59.451Z,100699.06
2022-11-29T13:00:00.768Z,100695.16
2022-11-29T13:02:48.977Z,100693.47
2022-11-29T13:05:55.547Z,100702.66
2022-11-29T13:08:59.562Z,100701.88
2022-11-29T13:11:40.101Z,100706.22
2022-11-29T13:14:44.438Z,100710.75
2022-11-29T13:17:36.096Z,100706.13
2022-11-29T13:20:42.273Z,100704.97
2022-11-29T13:24:07.765Z,100706.97
2022-11-29T13:26:30.856Z,100702.53
2022-11-29T13:28:58.304Z,100711.06
2022-11-29T13:31:25.514Z,100714.19
2022-11-29T13:34:03.868Z,100712.09
2022-11-29T13:36:42.489Z,100710.56
2022-11-29T13:39:40.033Z,100719.16
2022-11-29T13:42:12.548Z,100707.66
2022-11-29T13:45:03.951Z,100706.84
2022-11-29T13:47:30.471Z,100711.66
2022-11-29T13:50:03.561Z,100711.38
2022-11-29T13:52:42.010Z,100715.22
2022-11-29T13:55:11.711Z,100721.88
2022-11-29T14:00:43.800Z,100722.38
2022-11-29T14:03:28.354Z,100725.34
2022-11-29T14:06:11.455Z,100728.13
2022-11-29T14:11:42.682Z,100734.56
2022-11-29T14:14:35.847Z,100732.50
2022-11-29T14:17:05.212Z,100734.94
2022-11-29T14:19:37.074Z,100737.66
2022-11-29T14:22:06.477Z,100734.56
2022-11-29T14:24:35.837Z,100745.56
2022-11-29T14:27:14.057Z,100742.16
2022-11-29T14:29:53.865Z,100746.06
2022-11-29T14:32:44.395Z,100739.09
2022-11-29T14:35:12.641Z,100739.41
2022-11-29T14:38:21.785Z,100747.97
2022-11-29T14:41:06.545Z,100747.72
2022-11-29T14:43:36.576Z,100759.50
2022-11-29T14:46:16.530Z,100747.22
2022-11-29T14:48:57.254Z,100763.97
2022-11-29T14:51:26.214Z,100761.31
2022-11-29T14:54:16.739Z,100769.53
2022-11-29T14:56:44.879Z,100769.41
2022-11-29T14:59:49.269Z,100767.31
2022-11-29T15:02:26.909Z,100769.28
2022-11-29T15:04:57.019Z,100768.03
2022-11-29T15:07:31.918Z,100768.50
2022-11-29T15:10:02.718Z,100774.69
2022-11-29T15:12:35.712Z,100783.19
2022-11-29T15:15:27.264Z,100772.00
2022-11-29T15:18:05.304Z,100775.66
2022-11-29T15:20:44.370Z,100777.63
2022-11-29T15:23:18.695Z,100782.47
2022-11-29T15:25:53.933Z,100775.34
2022-11-29T15:28:25.970Z,100777.81
2022-11-29T15:31:11.020Z,100776.00
2022-11-29T15:33:49.561Z,100775.31
2022-11-29T15:36:22.044Z,100776.41
2022-11-29T15:38:54.688Z,100784.00
2022-11-29T15:41:34.747Z,100783.47
2022-11-29T15:44:06.692Z,100781.50
2022-11-29T15:46:34.906Z,100792.88
2022-11-29T15:49:24.888Z,100786.91
2022-11-29T15:52:02.182Z,100792.53
2022-11-29T15:54:42.913Z,100798.50
2022-11-29T15:57:24.939Z,100797.94
2022-11-29T15:59:55.679Z,100800.72
2022-11-29T16:02:29.261Z,100805.00
2022-11-29T16:05:10.777Z,100802.59
2022-11-29T16:07:39.210Z,100803.34
2022-11-29T16:10:19.537Z,100812.41
2022-11-29T16:12:55.558Z,100813.97
2022-11-29T16:15:29.628Z,100808.31
2022-11-29T16:17:56.408Z,100807.44
2022-11-29T16:20:25.145Z,100804.66
2022-11-29T16:23:13.835Z,100815.28
2022-11-29T16:26:01.209Z,100807.66
2022-11-29T16:28:42.374Z,100815.75
2022-11-29T16:31:12.478Z,100814.41
2022-11-29T16:33:43.698Z,100822.59
2022-11-29T16:36:15.479Z,100816.16
2022-11-29T16:39:15.135Z,100820.38
2022-11-29T16:41:41.721Z,100816.16
2022-11-29T16:44:39.962Z,100817.03
2022-11-29T16:47:20.891Z,100824.69
2022-11-29T16:50:02.677Z,100820.94
2022-11-29T16:52:31.640Z,100818.81
2022-11-29T16:54:58.297Z,100823.78
2022-11-29T16:57:26.227Z,100829.00
2022-11-29T16:59:52.758Z,100829.84
2022-11-29T17:02:19.292Z,100832.84
2022-11-29T17:04:46.152Z,100830.41
2022-11-29T17:07:26.960Z,100829.44
2022-11-29T17:09:53.784Z,100833.94
2022-11-29T17:12:20.347Z,100828.31
2022-11-29T17:14:47.244Z,100835.72
2022-11-29T17:17:15.605Z,100836.59
2022-11-29T17:19:42.391Z,100835.81
2022-11-29T17:22:09.276Z,100842.38
2022-11-29T17:24:37.295Z,100842.84
2022-11-29T17:27:04.358Z,100842.91
2022-11-29T17:29:30.917Z,100849.53
2022-11-29T17:31:57.480Z,100843.00
2022-11-29T17:34:24.219Z,100848.75
2022-11-29T17:36:51.114Z,100852.81
2022-11-29T17:39:20.063Z,100851.25
2022-11-29T17:41:46.966Z,100847.13
2022-11-29T17:44:13.537Z,100850.69
2022-11-29T17:46:40.167Z,100851.47
2022-11-29T17:49:08.795Z,100854.69
2022-11-29T17:51:54.141Z,100864.88
2022-11-29T17:54:24.142Z,100857.28
2022-11-29T17:56:51.883Z,100865.53
2022-11-29T17:59:18.706Z,100859.91
2022-11-29T18:01:47.191Z,100855.44
2022-11-29T18:04:14.144Z,100860.72
2022-11-29T18:06:41.275Z,100858.72
2022-11-29T18:09:09.793Z,100860.47
2022-11-29T18:11:48.035Z,100863.22
2022-11-29T18:14:22.592Z,100867.13
2022-11-29T18:16:49.543Z,100868.69
2022-11-29T18:19:18.532Z,100868.97
2022-11-29T18:21:45.060Z,100869.72
2022-11-29T18:24:11.670Z,100871.06
2022-11-29T18:26:39.276Z,100869.44
2022-11-29T18:29:07.072Z,100871.38
2022-11-29T18:31:36.387Z,100872.25
2022-11-29T18:34:06.996Z,100876.44
2022-11-29T18:36:37.427Z,100880.41
2022-11-29T18:39:10.937Z,100887.72
2022-11-29T18:41:37.848Z,100879.81
2022-11-29T18:44:10.612Z,100889.84
2022-11-29T18:46:40.148Z,100890.09
2022-11-29T18:49:08.522Z,100887.13
2022-11-29T18:51:36.388Z,100889.84
2022-11-29T18:54:03.338Z,100878.25
2022-11-29T18:56:32.024Z,100888.59
2022-11-29T18:59:07.858Z,100889.56
2022-11-29T19:01:37.750Z,100887.66
2022-11-29T19:04:04.656Z,100900.28
2022-11-29T19:06:39.335Z,100896.56
2022-11-29T19:09:11.320Z,100902.53
2022-11-29T19:11:38.226Z,100901.31
2022-11-29T19:14:11.149Z,100901.19
2022-11-29T19:16:39.961Z,100903.44
2022-11-29T19:19:06.579Z,100903.69
2022-11-29T19:21:34.532Z,100907.28
2022-11-29T19:24:07.573Z,100908.28
2022-11-29T19:26:34.436Z,100908.16
2022-11-29T19:29:01.840Z,100903.69
2022-11-29T19:31:28.924Z,100904.94
2022-11-29T19:33:57.215Z,100901.50
2022-11-29T19:36:29.383Z,100907.06
2022-11-29T19:38:56.970Z,100909.53
2022-11-29T19:41:26.195Z,100905.41
2022-11-29T19:43:53.134Z,100912.16
2022-11-29T19:46:24.222Z,100910.66
2022-11-29T19:48:58.475Z,100912.66
2022-11-29T19:51:27.063Z,100912.69
2022-11-29T19:53:55.702Z,100912.28
2022-11-29T19:56:23.547Z,100909.00
2022-11-29T19:58:50.947Z,100915.31
2022-11-29T20:01:23.259Z,100916.25
2022-11-29T20:03:50.562Z,100912.81
2022-11-29T20:06:18.843Z,100912.41
2022-11-29T20:08:45.484Z,100906.56
2022-11-29T20:11:13.523Z,100912.88
2022-11-29T20:13:41.770Z,100912.41
2022-11-29T20:16:13.847Z,100910.22
2022-11-29T20:18:48.732Z,100916.41
2022-11-29T20:21:18.616Z,100916.31
2022-11-29T20:23:45.564Z,100914.63
2022-11-29T20:26:19.880Z,100909.41
2022-11-29T20:28:47.525Z,100916.81
2022-11-29T20:31:18.159Z,100915.94
2022-11-29T20:33:46.318Z,100911.50
2022-11-29T20:36:37.665Z,100922.31
2022-11-29T20:39:30.394Z,100927.00
2022-11-29T20:42:18.434Z,100928.25
2022-11-29T20:44:54.308Z,100931.91
2022-11-29T20:47:25.900Z,100932.66
2022-11-29T20:49:52.963Z,100932.34
2022-11-29T20:52:28.723Z,100933.19
2022-11-29T20:54:55.281Z,100940.00
2022-11-29T20:57:21.969Z,100930.72
2022-11-29T20:59:48.606Z,100935.25
2022-11-29T21:02:15.172Z,100937.50
2022-11-29T21:04:41.780Z,100945.16
2022-11-29T21:07:08.268Z,100934.22
2022-11-29T21:10:05.137Z,100939.56
2022-11-29T21:12:32.243Z,100950.91
2022-11-29T21:14:59.068Z,100948.88
2022-11-29T21:17:31.840Z,100946.94
2022-11-29T21:20:00.176Z,100950.66
2022-11-29T21:22:29.607Z,100946.34
2022-11-29T21:25:11.197Z,100948.28
2022-11-29T21:27:38.013Z,100943.13
2022-11-29T21:30:15.447Z,100947.19
2022-11-29T21:32:42.572Z,100940.00
2022-11-29T21:35:09.222Z,100942.81
2022-11-29T21:37:36.047Z,100942.16
2022-11-29T21:40:02.679Z,100947.78
2022-11-29T21:42:29.220Z,100946.47
2022-11-29T21:44:55.654Z,100943.78
2022-11-29T21:47:22.298Z,100948.13
2022-11-29T21:49:48.863Z,100954.50
2022-11-29T21:52:22.047Z,100942.16
2022-11-29T21:54:49.640Z,100939.47
2022-11-29T21:57:16.188Z,100939.94
2022-11-29T21:59:42.696Z,100941.19
2022-11-29T22:02:09.289Z,100942.19
2022-11-29T22:04:35.832Z,100949.66
2022-11-29T22:07:02.392Z,100946.28
2022-11-29T22:09:28.929Z,100945.66
2022-11-29T22:11:55.428Z,100944.22
2022-11-29T22:14:21.896Z,100941.78
2022-11-29T22:16:52.576Z,100949.78
2022-11-29T22:19:20.719Z,100942.25
2022-11-29T22:21:49.876Z,100945.00
2022-11-29T22:24:19.394Z,100942.72
2022-11-29T22:26:46.840Z,100938.22
2022-11-29T22:29:14.868Z,100939.84
2022-11-29T22:31:42.630Z,100939.19
2022-11-29T22:34:09.376Z,100945.97
2022-11-29T22:36:37.255Z,100950.03
2022-11-29T22:39:05.039Z,100949.66
2022-11-29T22:41:32.414Z,100948.78
2022-11-29T22:43:59.076Z,100950.63
2022-11-29T22:46:27.402Z,100953.91
2022-11-29T22:48:55.815Z,100957.94
2022-11-29T22:51:25.581Z,100959.22
2022-11-29T22:53:53.370Z,100954.59
2022-11-29T22:56:20.750Z,100961.44
2022-11-29T22:58:47.529Z,100962.94
2022-11-29T23:01:16.208Z,100965.59
2022-11-29T23:03:45.462Z,100966.22
2022-11-29T23:06:17.297Z,100967.31
2022-11-29T23:08:45.121Z,100972.31
2022-11-29T23:11:14.126Z,100970.72
2022-11-29T23:13:42.260Z,100975.81
2022-11-29T23:16:11.458Z,100967.41
2022-11-29T23:18:39.184Z,100968.50
2022-11-29T23:21:08.752Z,100960.88
2022-11-29T23:23:35.939Z,100967.38
2022-11-29T23:26:04.246Z,100974.97
2022-11-29T23:28:30.971Z,100968.69
2022-11-29T23:30:59.213Z,100975.63
2022-11-29T23:33:27.264Z,100978.72
2022-11-29T23:36:02.015Z,100973.38
2022-11-29T23:38:28.574Z,100963.22
2022-11-29T23:40:55.165Z,100967.38
2022-11-29T23:43:22.214Z,100963.00
2022-11-29T23:45:49.082Z,100967.56
2022-11-29T23:48:15.994Z,100962.84
2022-11-29T23:50:43.128Z,100963.22
2022-11-29T23:53:13.130Z,100969.41
2022-11-29T23:55:40.134Z,100976.41
2022-11-29T23:58:06.678Z,100976.25
